Rechercher aéroport 
image banner adimage banner adimage banner ad
image banner ad

CA63 - John Muir Walnut Creek Medical Center

Situé à Walnut Creek, United States

ICAO - CA63, IATA -

Données fournies par Airmate  

Information générale

Coordonnées: N37°54'46" W122°2'30"
Élévation : 82 feet MSL.
Variation magnétique : 16° East
Voir autres Aéroports à California

Données opérationnelles

Special qualification required
Heure actuelle UTC:
Heure actuelle locale:
Météo à : KCCR - Buchanan Field ( 9 km )
METAR: KCCR 251553Z 28007KT 10SM CLR 19/11 A2995 RMK AO2 SLP128 T01890111
Voir NOTAMs / SUP AIP / TFR affectant cet aéroport [VIEW]
Fréquences de communication: [VIEW]

Pistes:

Coordonnées de l'aéroport

Adresse: Walnut Creek United States

Vue satellite de CA63